sensor_id;sensor_type;location;lat;lon;timestamp;P1;durP1;ratioP1;P2;durP2;ratioP2
15567;SDS011;7885;42.596;23.044;2023-04-03T00:01:06;21.73;;;13.30;;
15567;SDS011;7885;42.596;23.044;2023-04-03T00:03:33;15.60;;;11.43;;
15567;SDS011;7885;42.596;23.044;2023-04-03T00:06:00;19.17;;;11.37;;
15567;SDS011;7885;42.596;23.044;2023-04-03T00:08:27;18.20;;;12.87;;
15567;SDS011;7885;42.596;23.044;2023-04-03T00:10:57;19.93;;;13.73;;
15567;SDS011;7885;42.596;23.044;2023-04-03T00:13:24;14.90;;;9.50;;
15567;SDS011;7885;42.596;23.044;2023-04-03T00:15:51;16.03;;;10.97;;
15567;SDS011;7885;42.596;23.044;2023-04-03T00:18:18;8.70;;;7.20;;
15567;SDS011;7885;42.596;23.044;2023-04-03T00:20:45;16.67;;;11.13;;
15567;SDS011;7885;42.596;23.044;2023-04-03T00:23:11;17.27;;;12.03;;
15567;SDS011;7885;42.596;23.044;2023-04-03T00:25:38;15.37;;;11.20;;
15567;SDS011;7885;42.596;23.044;2023-04-03T00:28:06;16.57;;;10.90;;
15567;SDS011;7885;42.596;23.044;2023-04-03T00:30:33;15.80;;;11.60;;
15567;SDS011;7885;42.596;23.044;2023-04-03T00:33:00;15.77;;;11.97;;
15567;SDS011;7885;42.596;23.044;2023-04-03T00:35:28;16.93;;;11.20;;
15567;SDS011;7885;42.596;23.044;2023-04-03T00:37:55;13.67;;;9.43;;
15567;SDS011;7885;42.596;23.044;2023-04-03T00:40:23;10.30;;;8.17;;
15567;SDS011;7885;42.596;23.044;2023-04-03T00:42:54;8.80;;;7.90;;
15567;SDS011;7885;42.596;23.044;2023-04-03T00:45:31;19.33;;;10.60;;
15567;SDS011;7885;42.596;23.044;2023-04-03T00:48:01;17.30;;;10.23;;
15567;SDS011;7885;42.596;23.044;2023-04-03T00:50:31;11.03;;;8.93;;
15567;SDS011;7885;42.596;23.044;2023-04-03T00:53:00;12.40;;;8.53;;
15567;SDS011;7885;42.596;23.044;2023-04-03T00:55:28;12.00;;;8.00;;
15567;SDS011;7885;42.596;23.044;2023-04-03T00:57:55;13.77;;;9.13;;
15567;SDS011;7885;42.596;23.044;2023-04-03T01:00:23;17.17;;;10.43;;
15567;SDS011;7885;42.596;23.044;2023-04-03T01:02:52;22.07;;;10.73;;
15567;SDS011;7885;42.596;23.044;2023-04-03T01:05:19;19.53;;;11.23;;
15567;SDS011;7885;42.596;23.044;2023-04-03T01:07:47;19.07;;;9.77;;
15567;SDS011;7885;42.596;23.044;2023-04-03T01:10:16;23.27;;;10.50;;
15567;SDS011;7885;42.596;23.044;2023-04-03T01:12:45;19.53;;;9.83;;
15567;SDS011;7885;42.596;23.044;2023-04-03T01:15:14;14.87;;;9.77;;
15567;SDS011;7885;42.596;23.044;2023-04-03T01:17:43;17.53;;;10.17;;
15567;SDS011;7885;42.596;23.044;2023-04-03T01:20:18;22.93;;;11.53;;
15567;SDS011;7885;42.596;23.044;2023-04-03T01:23:06;18.70;;;10.10;;
15567;SDS011;7885;42.596;23.044;2023-04-03T01:25:46;15.50;;;9.07;;
15567;SDS011;7885;42.596;23.044;2023-04-03T01:28:14;17.40;;;10.13;;
15567;SDS011;7885;42.596;23.044;2023-04-03T01:30:50;21.63;;;11.07;;
15567;SDS011;7885;42.596;23.044;2023-04-03T01:33:26;18.10;;;10.10;;
15567;SDS011;7885;42.596;23.044;2023-04-03T01:35:52;21.20;;;12.57;;
15567;SDS011;7885;42.596;23.044;2023-04-03T01:38:19;19.73;;;10.70;;
15567;SDS011;7885;42.596;23.044;2023-04-03T01:40:46;18.93;;;11.00;;
15567;SDS011;7885;42.596;23.044;2023-04-03T01:43:13;20.87;;;11.50;;
15567;SDS011;7885;42.596;23.044;2023-04-03T01:45:40;15.20;;;9.67;;
15567;SDS011;7885;42.596;23.044;2023-04-03T01:48:06;13.10;;;8.63;;
15567;SDS011;7885;42.596;23.044;2023-04-03T01:50:35;13.37;;;9.80;;
15567;SDS011;7885;42.596;23.044;2023-04-03T01:53:01;15.77;;;10.77;;
15567;SDS011;7885;42.596;23.044;2023-04-03T01:55:28;23.67;;;14.67;;
15567;SDS011;7885;42.596;23.044;2023-04-03T01:57:55;38.40;;;22.30;;
15567;SDS011;7885;42.596;23.044;2023-04-03T02:00:22;42.33;;;25.83;;
15567;SDS011;7885;42.596;23.044;2023-04-03T02:02:49;27.20;;;15.93;;
15567;SDS011;7885;42.596;23.044;2023-04-03T02:05:15;26.93;;;15.10;;
15567;SDS011;7885;42.596;23.044;2023-04-03T02:07:44;25.70;;;15.17;;
15567;SDS011;7885;42.596;23.044;2023-04-03T02:10:11;23.53;;;13.67;;
15567;SDS011;7885;42.596;23.044;2023-04-03T02:12:38;21.70;;;10.90;;
15567;SDS011;7885;42.596;23.044;2023-04-03T02:15:05;20.73;;;13.43;;
15567;SDS011;7885;42.596;23.044;2023-04-03T02:17:32;21.57;;;13.67;;
15567;SDS011;7885;42.596;23.044;2023-04-03T02:19:59;24.23;;;14.63;;
15567;SDS011;7885;42.596;23.044;2023-04-03T02:22:26;17.30;;;10.70;;
15567;SDS011;7885;42.596;23.044;2023-04-03T02:24:54;15.00;;;10.37;;
15567;SDS011;7885;42.596;23.044;2023-04-03T02:27:20;14.20;;;10.07;;
15567;SDS011;7885;42.596;23.044;2023-04-03T02:29:47;15.77;;;10.60;;
15567;SDS011;7885;42.596;23.044;2023-04-03T02:32:14;18.00;;;10.27;;
15567;SDS011;7885;42.596;23.044;2023-04-03T02:34:41;27.90;;;19.27;;
15567;SDS011;7885;42.596;23.044;2023-04-03T02:37:07;18.93;;;12.50;;
15567;SDS011;7885;42.596;23.044;2023-04-03T02:39:34;26.67;;;16.87;;
15567;SDS011;7885;42.596;23.044;2023-04-03T02:42:02;25.60;;;17.77;;
15567;SDS011;7885;42.596;23.044;2023-04-03T02:44:29;31.20;;;19.17;;
15567;SDS011;7885;42.596;23.044;2023-04-03T02:46:56;31.00;;;20.33;;
15567;SDS011;7885;42.596;23.044;2023-04-03T02:49:23;25.27;;;17.90;;
15567;SDS011;7885;42.596;23.044;2023-04-03T02:55:26;19.53;;;11.03;;
15567;SDS011;7885;42.596;23.044;2023-04-03T02:57:54;20.00;;;12.70;;
15567;SDS011;7885;42.596;23.044;2023-04-03T03:00:21;18.80;;;12.67;;
15567;SDS011;7885;42.596;23.044;2023-04-03T03:02:48;16.03;;;10.60;;
15567;SDS011;7885;42.596;23.044;2023-04-03T03:05:15;16.00;;;12.07;;
15567;SDS011;7885;42.596;23.044;2023-04-03T03:07:42;19.13;;;13.27;;
15567;SDS011;7885;42.596;23.044;2023-04-03T03:10:09;21.53;;;12.80;;
15567;SDS011;7885;42.596;23.044;2023-04-03T03:12:35;18.80;;;11.77;;
15567;SDS011;7885;42.596;23.044;2023-04-03T03:15:04;22.20;;;11.80;;
15567;SDS011;7885;42.596;23.044;2023-04-03T03:24:15;22.60;;;10.13;;
15567;SDS011;7885;42.596;23.044;2023-04-03T03:26:42;18.63;;;10.23;;
15567;SDS011;7885;42.596;23.044;2023-04-03T03:29:08;20.47;;;9.87;;
15567;SDS011;7885;42.596;23.044;2023-04-03T03:31:37;22.03;;;10.07;;
15567;SDS011;7885;42.596;23.044;2023-04-03T03:34:03;21.20;;;10.73;;
15567;SDS011;7885;42.596;23.044;2023-04-03T03:36:30;17.87;;;10.03;;
15567;SDS011;7885;42.596;23.044;2023-04-03T03:38:57;16.93;;;9.90;;
15567;SDS011;7885;42.596;23.044;2023-04-03T03:41:24;20.63;;;10.13;;
15567;SDS011;7885;42.596;23.044;2023-04-03T03:43:51;20.53;;;10.73;;
15567;SDS011;7885;42.596;23.044;2023-04-03T03:46:17;20.57;;;10.70;;
15567;SDS011;7885;42.596;23.044;2023-04-03T03:48:45;18.50;;;11.10;;
15567;SDS011;7885;42.596;23.044;2023-04-03T03:51:12;18.43;;;10.70;;
15567;SDS011;7885;42.596;23.044;2023-04-03T03:53:39;20.50;;;11.30;;
15567;SDS011;7885;42.596;23.044;2023-04-03T03:56:06;16.30;;;8.47;;
15567;SDS011;7885;42.596;23.044;2023-04-03T04:01:54;21.43;;;10.53;;
15567;SDS011;7885;42.596;23.044;2023-04-03T04:04:22;16.83;;;8.50;;
15567;SDS011;7885;42.596;23.044;2023-04-03T04:06:49;16.10;;;9.97;;
15567;SDS011;7885;42.596;23.044;2023-04-03T04:09:16;16.53;;;9.83;;
15567;SDS011;7885;42.596;23.044;2023-04-03T04:11:44;13.67;;;9.63;;
15567;SDS011;7885;42.596;23.044;2023-04-03T04:14:10;15.17;;;9.87;;
15567;SDS011;7885;42.596;23.044;2023-04-03T04:16:38;16.47;;;10.17;;
15567;SDS011;7885;42.596;23.044;2023-04-03T04:19:05;20.33;;;14.10;;
15567;SDS011;7885;42.596;23.044;2023-04-03T04:21:33;24.20;;;14.43;;
15567;SDS011;7885;42.596;23.044;2023-04-03T04:24:00;23.40;;;15.27;;
15567;SDS011;7885;42.596;23.044;2023-04-03T04:26:26;33.13;;;21.23;;
15567;SDS011;7885;42.596;23.044;2023-04-03T04:28:53;21.00;;;13.60;;
15567;SDS011;7885;42.596;23.044;2023-04-03T04:31:20;26.70;;;14.00;;
15567;SDS011;7885;42.596;23.044;2023-04-03T04:33:47;22.87;;;14.10;;
15567;SDS011;7885;42.596;23.044;2023-04-03T04:36:13;20.63;;;12.17;;
15567;SDS011;7885;42.596;23.044;2023-04-03T04:38:42;18.33;;;14.43;;
15567;SDS011;7885;42.596;23.044;2023-04-03T04:41:08;18.47;;;10.87;;
15567;SDS011;7885;42.596;23.044;2023-04-03T04:43:35;16.57;;;10.73;;
15567;SDS011;7885;42.596;23.044;2023-04-03T04:46:03;18.83;;;12.80;;
15567;SDS011;7885;42.596;23.044;2023-04-03T04:48:31;24.13;;;12.73;;
15567;SDS011;7885;42.596;23.044;2023-04-03T04:50:57;22.63;;;12.77;;
15567;SDS011;7885;42.596;23.044;2023-04-03T04:53:24;16.93;;;12.67;;
15567;SDS011;7885;42.596;23.044;2023-04-03T04:55:52;23.27;;;14.73;;
15567;SDS011;7885;42.596;23.044;2023-04-03T04:58:19;25.97;;;14.80;;
15567;SDS011;7885;42.596;23.044;2023-04-03T05:00:46;22.07;;;14.30;;
15567;SDS011;7885;42.596;23.044;2023-04-03T05:03:13;30.50;;;18.90;;
15567;SDS011;7885;42.596;23.044;2023-04-03T05:05:40;28.20;;;18.67;;
15567;SDS011;7885;42.596;23.044;2023-04-03T05:08:07;29.83;;;23.73;;
15567;SDS011;7885;42.596;23.044;2023-04-03T05:10:34;29.80;;;22.90;;
15567;SDS011;7885;42.596;23.044;2023-04-03T05:13:02;28.37;;;21.60;;
15567;SDS011;7885;42.596;23.044;2023-04-03T05:15:29;31.90;;;24.70;;
15567;SDS011;7885;42.596;23.044;2023-04-03T05:17:55;27.83;;;22.57;;
15567;SDS011;7885;42.596;23.044;2023-04-03T05:20:22;46.73;;;29.97;;
15567;SDS011;7885;42.596;23.044;2023-04-03T05:22:49;34.27;;;27.33;;
15567;SDS011;7885;42.596;23.044;2023-04-03T05:25:15;44.77;;;34.73;;
15567;SDS011;7885;42.596;23.044;2023-04-03T05:27:42;56.17;;;41.17;;
15567;SDS011;7885;42.596;23.044;2023-04-03T05:30:11;49.83;;;37.87;;
15567;SDS011;7885;42.596;23.044;2023-04-03T05:32:38;41.40;;;34.63;;
15567;SDS011;7885;42.596;23.044;2023-04-03T05:35:05;53.33;;;39.97;;
15567;SDS011;7885;42.596;23.044;2023-04-03T05:37:33;60.03;;;47.17;;
15567;SDS011;7885;42.596;23.044;2023-04-03T05:40:00;57.10;;;47.47;;
15567;SDS011;7885;42.596;23.044;2023-04-03T05:42:27;64.43;;;50.20;;
15567;SDS011;7885;42.596;23.044;2023-04-03T05:44:53;69.57;;;51.53;;
15567;SDS011;7885;42.596;23.044;2023-04-03T05:47:21;65.80;;;49.07;;
15567;SDS011;7885;42.596;23.044;2023-04-03T05:49:49;61.87;;;45.53;;
15567;SDS011;7885;42.596;23.044;2023-04-03T05:52:18;62.70;;;47.47;;
15567;SDS011;7885;42.596;23.044;2023-04-03T05:54:47;58.60;;;48.03;;
15567;SDS011;7885;42.596;23.044;2023-04-03T05:57:14;58.80;;;44.37;;
15567;SDS011;7885;42.596;23.044;2023-04-03T05:59:41;60.83;;;47.13;;
15567;SDS011;7885;42.596;23.044;2023-04-03T06:02:09;40.40;;;31.93;;
15567;SDS011;7885;42.596;23.044;2023-04-03T06:04:38;17.00;;;13.53;;
15567;SDS011;7885;42.596;23.044;2023-04-03T06:07:05;7.23;;;5.37;;
15567;SDS011;7885;42.596;23.044;2023-04-03T06:09:33;7.83;;;6.40;;
15567;SDS011;7885;42.596;23.044;2023-04-03T06:12:00;13.07;;;10.03;;
15567;SDS011;7885;42.596;23.044;2023-04-03T06:14:27;23.87;;;17.87;;
15567;SDS011;7885;42.596;23.044;2023-04-03T06:16:54;35.77;;;25.27;;
15567;SDS011;7885;42.596;23.044;2023-04-03T06:19:21;39.97;;;29.47;;
15567;SDS011;7885;42.596;23.044;2023-04-03T06:21:49;28.23;;;20.33;;
15567;SDS011;7885;42.596;23.044;2023-04-03T06:24:16;19.87;;;14.57;;
15567;SDS011;7885;42.596;23.044;2023-04-03T06:26:43;24.30;;;16.70;;
15567;SDS011;7885;42.596;23.044;2023-04-03T06:29:10;17.13;;;11.73;;
15567;SDS011;7885;42.596;23.044;2023-04-03T06:31:37;15.73;;;13.13;;
15567;SDS011;7885;42.596;23.044;2023-04-03T06:34:04;12.00;;;9.80;;
15567;SDS011;7885;42.596;23.044;2023-04-03T06:36:32;9.53;;;7.17;;
15567;SDS011;7885;42.596;23.044;2023-04-03T06:39:00;11.17;;;8.43;;
15567;SDS011;7885;42.596;23.044;2023-04-03T06:41:28;6.93;;;6.10;;
15567;SDS011;7885;42.596;23.044;2023-04-03T06:44:01;12.10;;;7.77;;
15567;SDS011;7885;42.596;23.044;2023-04-03T06:46:28;10.07;;;8.20;;
15567;SDS011;7885;42.596;23.044;2023-04-03T06:48:55;10.40;;;8.10;;
15567;SDS011;7885;42.596;23.044;2023-04-03T06:51:22;14.03;;;10.37;;
15567;SDS011;7885;42.596;23.044;2023-04-03T06:53:51;10.27;;;7.40;;
15567;SDS011;7885;42.596;23.044;2023-04-03T06:56:22;8.13;;;6.00;;
15567;SDS011;7885;42.596;23.044;2023-04-03T06:58:50;7.00;;;6.00;;
15567;SDS011;7885;42.596;23.044;2023-04-03T07:01:19;7.87;;;6.57;;
15567;SDS011;7885;42.596;23.044;2023-04-03T07:03:46;8.87;;;7.70;;
15567;SDS011;7885;42.596;23.044;2023-04-03T07:06:14;9.80;;;7.10;;
15567;SDS011;7885;42.596;23.044;2023-04-03T07:08:42;7.53;;;6.30;;
15567;SDS011;7885;42.596;23.044;2023-04-03T07:11:10;7.73;;;6.30;;
15567;SDS011;7885;42.596;23.044;2023-04-03T07:13:39;8.40;;;6.13;;
15567;SDS011;7885;42.596;23.044;2023-04-03T07:16:06;5.87;;;5.00;;
15567;SDS011;7885;42.596;23.044;2023-04-03T07:25:18;6.53;;;5.53;;
15567;SDS011;7885;42.596;23.044;2023-04-03T07:27:44;12.17;;;7.10;;
15567;SDS011;7885;42.596;23.044;2023-04-03T07:30:13;6.80;;;4.50;;
15567;SDS011;7885;42.596;23.044;2023-04-03T07:32:40;5.60;;;3.90;;
15567;SDS011;7885;42.596;23.044;2023-04-03T07:35:07;6.07;;;5.07;;
15567;SDS011;7885;42.596;23.044;2023-04-03T07:37:34;6.37;;;5.17;;
15567;SDS011;7885;42.596;23.044;2023-04-03T07:40:00;5.77;;;3.90;;
15567;SDS011;7885;42.596;23.044;2023-04-03T07:42:28;6.73;;;5.10;;
15567;SDS011;7885;42.596;23.044;2023-04-03T07:44:58;5.27;;;4.23;;
15567;SDS011;7885;42.596;23.044;2023-04-03T07:47:31;4.93;;;3.20;;
15567;SDS011;7885;42.596;23.044;2023-04-03T07:50:04;4.20;;;3.40;;
15567;SDS011;7885;42.596;23.044;2023-04-03T07:52:32;5.23;;;3.50;;
15567;SDS011;7885;42.596;23.044;2023-04-03T07:54:59;3.57;;;2.77;;
15567;SDS011;7885;42.596;23.044;2023-04-03T07:57:26;6.87;;;3.17;;
15567;SDS011;7885;42.596;23.044;2023-04-03T07:59:52;4.13;;;2.70;;
15567;SDS011;7885;42.596;23.044;2023-04-03T08:02:19;3.67;;;2.00;;
15567;SDS011;7885;42.596;23.044;2023-04-03T08:04:47;3.13;;;2.57;;
15567;SDS011;7885;42.596;23.044;2023-04-03T08:07:14;8.60;;;2.77;;
15567;SDS011;7885;42.596;23.044;2023-04-03T08:09:41;2.00;;;1.80;;
15567;SDS011;7885;42.596;23.044;2023-04-03T08:12:09;2.10;;;1.40;;
15567;SDS011;7885;42.596;23.044;2023-04-03T08:17:58;1.50;;;0.90;;
15567;SDS011;7885;42.596;23.044;2023-04-03T08:20:27;2.00;;;0.80;;
15567;SDS011;7885;42.596;23.044;2023-04-03T08:22:54;2.03;;;1.00;;
15567;SDS011;7885;42.596;23.044;2023-04-03T08:25:21;2.30;;;1.10;;
15567;SDS011;7885;42.596;23.044;2023-04-03T08:27:48;1.00;;;0.80;;
15567;SDS011;7885;42.596;23.044;2023-04-03T08:30:15;2.37;;;1.17;;
15567;SDS011;7885;42.596;23.044;2023-04-03T08:32:42;1.50;;;1.20;;
15567;SDS011;7885;42.596;23.044;2023-04-03T08:35:09;2.13;;;1.17;;
15567;SDS011;7885;42.596;23.044;2023-04-03T08:37:38;11.57;;;2.00;;
15567;SDS011;7885;42.596;23.044;2023-04-03T08:40:07;1.40;;;1.30;;
15567;SDS011;7885;42.596;23.044;2023-04-03T08:42:41;3.60;;;1.30;;
15567;SDS011;7885;42.596;23.044;2023-04-03T08:45:19;2.00;;;1.00;;
15567;SDS011;7885;42.596;23.044;2023-04-03T08:47:55;3.73;;;1.57;;
15567;SDS011;7885;42.596;23.044;2023-04-03T08:50:28;1.60;;;1.20;;
15567;SDS011;7885;42.596;23.044;2023-04-03T08:53:01;4.27;;;1.40;;
15567;SDS011;7885;42.596;23.044;2023-04-03T08:55:32;2.40;;;1.60;;
15567;SDS011;7885;42.596;23.044;2023-04-03T08:58:05;1.60;;;1.20;;
15567;SDS011;7885;42.596;23.044;2023-04-03T09:00:35;1.47;;;1.37;;
15567;SDS011;7885;42.596;23.044;2023-04-03T09:03:11;1.70;;;1.60;;
15567;SDS011;7885;42.596;23.044;2023-04-03T09:05:39;2.83;;;1.40;;
15567;SDS011;7885;42.596;23.044;2023-04-03T09:08:21;2.87;;;1.50;;
15567;SDS011;7885;42.596;23.044;2023-04-03T09:10:52;2.40;;;1.63;;
15567;SDS011;7885;42.596;23.044;2023-04-03T09:13:30;1.37;;;1.27;;
15567;SDS011;7885;42.596;23.044;2023-04-03T09:16:03;1.20;;;1.10;;
15567;SDS011;7885;42.596;23.044;2023-04-03T09:18:44;1.23;;;1.10;;
15567;SDS011;7885;42.596;23.044;2023-04-03T09:21:16;1.63;;;1.53;;
15567;SDS011;7885;42.596;23.044;2023-04-03T09:23:51;1.93;;;1.57;;
15567;SDS011;7885;42.596;23.044;2023-04-03T09:26:21;1.63;;;1.30;;
15567;SDS011;7885;42.596;23.044;2023-04-03T09:28:52;2.20;;;1.40;;
15567;SDS011;7885;42.596;23.044;2023-04-03T09:31:22;2.20;;;1.20;;
15567;SDS011;7885;42.596;23.044;2023-04-03T09:33:51;5.90;;;1.83;;
15567;SDS011;7885;42.596;23.044;2023-04-03T09:36:39;3.40;;;1.37;;
15567;SDS011;7885;42.596;23.044;2023-04-03T09:39:11;3.27;;;1.80;;
15567;SDS011;7885;42.596;23.044;2023-04-03T09:41:41;2.93;;;1.70;;
15567;SDS011;7885;42.596;23.044;2023-04-03T09:44:20;3.43;;;2.00;;
15567;SDS011;7885;42.596;23.044;2023-04-03T09:50:17;1.70;;;1.50;;
15567;SDS011;7885;42.596;23.044;2023-04-03T09:52:48;3.00;;;1.43;;
15567;SDS011;7885;42.596;23.044;2023-04-03T09:55:18;5.17;;;2.03;;
15567;SDS011;7885;42.596;23.044;2023-04-03T09:57:52;5.73;;;5.17;;
15567;SDS011;7885;42.596;23.044;2023-04-03T10:00:22;10.73;;;9.60;;
15567;SDS011;7885;42.596;23.044;2023-04-03T10:02:51;5.27;;;3.90;;
15567;SDS011;7885;42.596;23.044;2023-04-03T10:05:25;6.73;;;2.93;;
15567;SDS011;7885;42.596;23.044;2023-04-03T10:07:59;3.20;;;2.30;;
15567;SDS011;7885;42.596;23.044;2023-04-03T10:10:35;2.60;;;2.40;;
15567;SDS011;7885;42.596;23.044;2023-04-03T10:13:04;5.20;;;2.73;;
15567;SDS011;7885;42.596;23.044;2023-04-03T10:15:34;3.47;;;2.50;;
15567;SDS011;7885;42.596;23.044;2023-04-03T10:18:06;3.70;;;2.40;;
15567;SDS011;7885;42.596;23.044;2023-04-03T10:20:46;5.40;;;2.50;;
15567;SDS011;7885;42.596;23.044;2023-04-03T10:23:17;4.73;;;2.40;;
15567;SDS011;7885;42.596;23.044;2023-04-03T10:25:51;2.87;;;2.47;;
15567;SDS011;7885;42.596;23.044;2023-04-03T10:28:33;8.37;;;2.93;;
15567;SDS011;7885;42.596;23.044;2023-04-03T10:31:11;3.57;;;3.17;;
15567;SDS011;7885;42.596;23.044;2023-04-03T10:33:48;9.07;;;3.33;;
15567;SDS011;7885;42.596;23.044;2023-04-03T10:36:25;5.73;;;2.90;;
15567;SDS011;7885;42.596;23.044;2023-04-03T10:39:00;9.27;;;3.50;;
15567;SDS011;7885;42.596;23.044;2023-04-03T10:41:37;5.93;;;3.20;;
15567;SDS011;7885;42.596;23.044;2023-04-03T10:44:15;7.87;;;3.00;;
15567;SDS011;7885;42.596;23.044;2023-04-03T10:46:50;5.13;;;3.00;;
15567;SDS011;7885;42.596;23.044;2023-04-03T10:49:28;6.67;;;2.90;;
15567;SDS011;7885;42.596;23.044;2023-04-03T10:52:09;5.03;;;3.13;;
15567;SDS011;7885;42.596;23.044;2023-04-03T10:54:44;3.37;;;2.57;;
15567;SDS011;7885;42.596;23.044;2023-04-03T10:57:17;5.03;;;2.70;;
15567;SDS011;7885;42.596;23.044;2023-04-03T10:59:45;4.33;;;3.00;;
15567;SDS011;7885;42.596;23.044;2023-04-03T11:02:16;7.03;;;2.50;;
15567;SDS011;7885;42.596;23.044;2023-04-03T11:04:50;3.40;;;2.03;;
15567;SDS011;7885;42.596;23.044;2023-04-03T11:07:23;5.13;;;1.87;;
15567;SDS011;7885;42.596;23.044;2023-04-03T11:13:17;5.00;;;1.60;;
15567;SDS011;7885;42.596;23.044;2023-04-03T11:15:48;4.50;;;1.40;;
15567;SDS011;7885;42.596;23.044;2023-04-03T11:18:15;6.07;;;1.80;;
15567;SDS011;7885;42.596;23.044;2023-04-03T11:20:47;3.47;;;1.97;;
15567;SDS011;7885;42.596;23.044;2023-04-03T11:23:25;4.33;;;1.40;;
15567;SDS011;7885;42.596;23.044;2023-04-03T11:25:53;3.83;;;1.90;;
15567;SDS011;7885;42.596;23.044;2023-04-03T11:28:24;8.40;;;2.40;;
15567;SDS011;7885;42.596;23.044;2023-04-03T11:30:52;4.73;;;2.30;;
15567;SDS011;7885;42.596;23.044;2023-04-03T11:33:32;5.40;;;2.87;;
15567;SDS011;7885;42.596;23.044;2023-04-03T11:36:12;4.70;;;2.30;;
15567;SDS011;7885;42.596;23.044;2023-04-03T11:38:46;2.83;;;1.93;;
15567;SDS011;7885;42.596;23.044;2023-04-03T11:41:16;5.20;;;2.10;;
15567;SDS011;7885;42.596;23.044;2023-04-03T11:43:56;2.30;;;1.53;;
15567;SDS011;7885;42.596;23.044;2023-04-03T11:55:46;2.43;;;2.03;;
15567;SDS011;7885;42.596;23.044;2023-04-03T11:58:20;2.70;;;1.93;;
15567;SDS011;7885;42.596;23.044;2023-04-03T12:01:05;1.80;;;1.70;;
15567;SDS011;7885;42.596;23.044;2023-04-03T12:12:28;2.93;;;2.20;;
15567;SDS011;7885;42.596;23.044;2023-04-03T12:15:17;3.57;;;2.13;;
15567;SDS011;7885;42.596;23.044;2023-04-03T12:17:48;4.10;;;2.17;;
15567;SDS011;7885;42.596;23.044;2023-04-03T12:23:28;3.80;;;2.50;;
15567;SDS011;7885;42.596;23.044;2023-04-03T12:26:00;5.33;;;3.10;;
15567;SDS011;7885;42.596;23.044;2023-04-03T12:28:35;2.83;;;2.53;;
15567;SDS011;7885;42.596;23.044;2023-04-03T12:31:04;2.93;;;2.30;;
15567;SDS011;7885;42.596;23.044;2023-04-03T12:33:38;3.80;;;2.10;;
15567;SDS011;7885;42.596;23.044;2023-04-03T12:36:23;3.23;;;2.30;;
15567;SDS011;7885;42.596;23.044;2023-04-03T12:39:04;3.97;;;2.87;;
15567;SDS011;7885;42.596;23.044;2023-04-03T12:41:42;2.30;;;1.70;;
15567;SDS011;7885;42.596;23.044;2023-04-03T12:47:16;2.40;;;1.80;;
15567;SDS011;7885;42.596;23.044;2023-04-03T12:49:51;2.33;;;1.97;;
15567;SDS011;7885;42.596;23.044;2023-04-03T12:52:22;3.47;;;2.07;;
15567;SDS011;7885;42.596;23.044;2023-04-03T12:54:58;2.73;;;2.00;;
15567;SDS011;7885;42.596;23.044;2023-04-03T12:57:29;2.13;;;1.80;;
15567;SDS011;7885;42.596;23.044;2023-04-03T12:59:57;1.70;;;1.60;;
15567;SDS011;7885;42.596;23.044;2023-04-03T13:02:25;2.10;;;1.90;;
15567;SDS011;7885;42.596;23.044;2023-04-03T13:04:56;2.60;;;1.87;;
15567;SDS011;7885;42.596;23.044;2023-04-03T13:07:26;2.73;;;1.80;;
15567;SDS011;7885;42.596;23.044;2023-04-03T13:10:04;2.20;;;2.00;;
15567;SDS011;7885;42.596;23.044;2023-04-03T13:12:51;2.10;;;1.90;;
15567;SDS011;7885;42.596;23.044;2023-04-03T13:15:19;3.00;;;1.90;;
15567;SDS011;7885;42.596;23.044;2023-04-03T13:17:48;2.77;;;2.10;;
15567;SDS011;7885;42.596;23.044;2023-04-03T13:20:20;3.47;;;2.07;;
15567;SDS011;7885;42.596;23.044;2023-04-03T13:22:51;3.40;;;2.43;;
15567;SDS011;7885;42.596;23.044;2023-04-03T13:25:22;2.53;;;2.30;;
15567;SDS011;7885;42.596;23.044;2023-04-03T13:27:52;3.53;;;2.57;;
15567;SDS011;7885;42.596;23.044;2023-04-03T13:30:20;2.43;;;2.23;;
15567;SDS011;7885;42.596;23.044;2023-04-03T13:32:50;3.60;;;2.10;;
15567;SDS011;7885;42.596;23.044;2023-04-03T13:35:26;5.13;;;2.50;;
15567;SDS011;7885;42.596;23.044;2023-04-03T13:37:59;1.73;;;1.60;;
15567;SDS011;7885;42.596;23.044;2023-04-03T13:40:27;3.10;;;1.93;;
15567;SDS011;7885;42.596;23.044;2023-04-03T13:42:59;1.70;;;1.60;;
15567;SDS011;7885;42.596;23.044;2023-04-03T13:45:27;3.33;;;1.50;;
15567;SDS011;7885;42.596;23.044;2023-04-03T13:48:06;5.33;;;2.07;;
15567;SDS011;7885;42.596;23.044;2023-04-03T13:50:51;2.07;;;1.87;;
15567;SDS011;7885;42.596;23.044;2023-04-03T13:53:24;2.70;;;2.03;;
15567;SDS011;7885;42.596;23.044;2023-04-03T13:55:56;2.07;;;1.60;;
15567;SDS011;7885;42.596;23.044;2023-04-03T13:58:26;1.30;;;1.10;;
15567;SDS011;7885;42.596;23.044;2023-04-03T14:04:17;1.73;;;1.50;;
15567;SDS011;7885;42.596;23.044;2023-04-03T14:06:47;3.43;;;3.13;;
15567;SDS011;7885;42.596;23.044;2023-04-03T14:09:17;2.03;;;1.50;;
15567;SDS011;7885;42.596;23.044;2023-04-03T14:11:44;4.57;;;2.40;;
15567;SDS011;7885;42.596;23.044;2023-04-03T14:14:13;1.60;;;1.50;;
15567;SDS011;7885;42.596;23.044;2023-04-03T14:16:43;1.53;;;1.33;;
15567;SDS011;7885;42.596;23.044;2023-04-03T14:19:16;1.57;;;1.47;;
15567;SDS011;7885;42.596;23.044;2023-04-03T14:25:08;1.60;;;1.40;;
15567;SDS011;7885;42.596;23.044;2023-04-03T14:27:36;2.83;;;1.70;;
15567;SDS011;7885;42.596;23.044;2023-04-03T14:30:07;1.20;;;1.10;;
15567;SDS011;7885;42.596;23.044;2023-04-03T14:32:38;1.07;;;1.07;;
15567;SDS011;7885;42.596;23.044;2023-04-03T14:35:05;1.97;;;1.77;;
15567;SDS011;7885;42.596;23.044;2023-04-03T14:37:32;2.70;;;1.80;;
15567;SDS011;7885;42.596;23.044;2023-04-03T14:40:01;1.57;;;1.47;;
15567;SDS011;7885;42.596;23.044;2023-04-03T14:42:32;1.30;;;1.20;;
15567;SDS011;7885;42.596;23.044;2023-04-03T14:45:01;1.67;;;1.57;;
15567;SDS011;7885;42.596;23.044;2023-04-03T14:47:31;1.40;;;1.20;;
15567;SDS011;7885;42.596;23.044;2023-04-03T14:49:59;1.40;;;1.30;;
15567;SDS011;7885;42.596;23.044;2023-04-03T14:52:27;1.30;;;1.20;;
15567;SDS011;7885;42.596;23.044;2023-04-03T14:54:56;1.33;;;1.20;;
15567;SDS011;7885;42.596;23.044;2023-04-03T14:57:24;1.60;;;1.50;;
15567;SDS011;7885;42.596;23.044;2023-04-03T14:59:54;1.87;;;1.63;;
15567;SDS011;7885;42.596;23.044;2023-04-03T15:02:25;1.97;;;1.20;;
15567;SDS011;7885;42.596;23.044;2023-04-03T15:04:54;1.60;;;1.50;;
15567;SDS011;7885;42.596;23.044;2023-04-03T15:07:21;3.20;;;2.40;;
15567;SDS011;7885;42.596;23.044;2023-04-03T15:09:50;0.93;;;0.90;;
15567;SDS011;7885;42.596;23.044;2023-04-03T15:12:17;1.10;;;1.00;;
15567;SDS011;7885;42.596;23.044;2023-04-03T15:14:43;0.93;;;0.80;;
15567;SDS011;7885;42.596;23.044;2023-04-03T15:17:13;1.00;;;1.00;;
15567;SDS011;7885;42.596;23.044;2023-04-03T15:19:43;1.63;;;0.87;;
15567;SDS011;7885;42.596;23.044;2023-04-03T15:22:12;1.77;;;1.30;;
15567;SDS011;7885;42.596;23.044;2023-04-03T15:24:40;1.40;;;0.90;;
15567;SDS011;7885;42.596;23.044;2023-04-03T15:27:07;1.00;;;0.90;;
15567;SDS011;7885;42.596;23.044;2023-04-03T15:29:34;1.20;;;1.10;;
15567;SDS011;7885;42.596;23.044;2023-04-03T15:32:01;2.07;;;1.90;;
15567;SDS011;7885;42.596;23.044;2023-04-03T15:34:35;1.70;;;1.60;;
15567;SDS011;7885;42.596;23.044;2023-04-03T15:37:02;0.93;;;0.90;;
15567;SDS011;7885;42.596;23.044;2023-04-03T15:39:29;1.37;;;1.20;;
15567;SDS011;7885;42.596;23.044;2023-04-03T15:41:56;1.70;;;1.17;;
15567;SDS011;7885;42.596;23.044;2023-04-03T15:44:24;1.50;;;1.40;;
15567;SDS011;7885;42.596;23.044;2023-04-03T15:46:51;1.50;;;1.00;;
15567;SDS011;7885;42.596;23.044;2023-04-03T15:49:18;1.37;;;1.20;;
15567;SDS011;7885;42.596;23.044;2023-04-03T15:51:48;1.53;;;1.43;;
15567;SDS011;7885;42.596;23.044;2023-04-03T15:54:15;2.10;;;1.70;;